sensor_id;sensor_type;location;lat;lon;timestamp;P1;durP1;ratioP1;P2;durP2;ratioP2
20245;SDS011;10281;54.406;18.556;2023-06-05T00:00:47;3.83;;;2.43;;
20245;SDS011;10281;54.406;18.556;2023-06-05T00:03:14;3.30;;;2.47;;
20245;SDS011;10281;54.406;18.556;2023-06-05T00:05:43;3.03;;;2.37;;
20245;SDS011;10281;54.406;18.556;2023-06-05T00:08:09;4.70;;;2.73;;
20245;SDS011;10281;54.406;18.556;2023-06-05T00:10:36;3.97;;;2.47;;
20245;SDS011;10281;54.406;18.556;2023-06-05T00:13:03;3.60;;;2.70;;
20245;SDS011;10281;54.406;18.556;2023-06-05T00:15:29;4.40;;;2.50;;
20245;SDS011;10281;54.406;18.556;2023-06-05T00:17:58;3.60;;;2.60;;
20245;SDS011;10281;54.406;18.556;2023-06-05T00:20:25;2.93;;;2.20;;
20245;SDS011;10281;54.406;18.556;2023-06-05T00:22:52;5.53;;;2.70;;
20245;SDS011;10281;54.406;18.556;2023-06-05T00:25:20;3.83;;;2.90;;
20245;SDS011;10281;54.406;18.556;2023-06-05T00:27:47;4.47;;;3.03;;
20245;SDS011;10281;54.406;18.556;2023-06-05T00:30:13;3.90;;;2.70;;
20245;SDS011;10281;54.406;18.556;2023-06-05T00:32:41;4.00;;;2.63;;
20245;SDS011;10281;54.406;18.556;2023-06-05T00:35:08;4.17;;;2.80;;
20245;SDS011;10281;54.406;18.556;2023-06-05T00:37:35;6.20;;;3.10;;
20245;SDS011;10281;54.406;18.556;2023-06-05T00:40:03;6.47;;;3.00;;
20245;SDS011;10281;54.406;18.556;2023-06-05T00:42:31;5.70;;;3.27;;
20245;SDS011;10281;54.406;18.556;2023-06-05T00:44:57;6.00;;;3.13;;
20245;SDS011;10281;54.406;18.556;2023-06-05T00:47:24;5.87;;;3.10;;
20245;SDS011;10281;54.406;18.556;2023-06-05T00:49:51;5.57;;;3.20;;
20245;SDS011;10281;54.406;18.556;2023-06-05T00:52:18;4.67;;;3.00;;
20245;SDS011;10281;54.406;18.556;2023-06-05T00:54:45;6.07;;;3.30;;
20245;SDS011;10281;54.406;18.556;2023-06-05T00:57:12;5.20;;;3.63;;
20245;SDS011;10281;54.406;18.556;2023-06-05T00:59:39;5.70;;;3.20;;
20245;SDS011;10281;54.406;18.556;2023-06-05T01:02:08;5.00;;;3.30;;
20245;SDS011;10281;54.406;18.556;2023-06-05T01:04:35;6.63;;;3.60;;
20245;SDS011;10281;54.406;18.556;2023-06-05T01:07:02;5.33;;;3.30;;
20245;SDS011;10281;54.406;18.556;2023-06-05T01:09:29;5.70;;;3.13;;
20245;SDS011;10281;54.406;18.556;2023-06-05T01:11:58;7.40;;;3.50;;
20245;SDS011;10281;54.406;18.556;2023-06-05T01:14:28;4.13;;;3.27;;
20245;SDS011;10281;54.406;18.556;2023-06-05T01:16:59;5.80;;;3.33;;
20245;SDS011;10281;54.406;18.556;2023-06-05T01:19:28;5.27;;;3.47;;
20245;SDS011;10281;54.406;18.556;2023-06-05T01:21:57;4.63;;;2.87;;
20245;SDS011;10281;54.406;18.556;2023-06-05T01:24:24;4.07;;;3.30;;
20245;SDS011;10281;54.406;18.556;2023-06-05T01:27:11;6.13;;;3.47;;
20245;SDS011;10281;54.406;18.556;2023-06-05T01:29:48;6.77;;;3.50;;
20245;SDS011;10281;54.406;18.556;2023-06-05T01:32:23;5.97;;;3.70;;
20245;SDS011;10281;54.406;18.556;2023-06-05T01:34:51;6.50;;;3.87;;
20245;SDS011;10281;54.406;18.556;2023-06-05T01:37:21;7.47;;;3.60;;
20245;SDS011;10281;54.406;18.556;2023-06-05T01:39:50;5.83;;;3.87;;
20245;SDS011;10281;54.406;18.556;2023-06-05T01:42:19;7.27;;;3.30;;
20245;SDS011;10281;54.406;18.556;2023-06-05T01:44:46;7.17;;;3.70;;
20245;SDS011;10281;54.406;18.556;2023-06-05T01:47:15;4.87;;;3.60;;
20245;SDS011;10281;54.406;18.556;2023-06-05T01:49:42;4.97;;;3.50;;
20245;SDS011;10281;54.406;18.556;2023-06-05T01:52:09;5.17;;;3.37;;
20245;SDS011;10281;54.406;18.556;2023-06-05T01:54:36;7.17;;;3.73;;
20245;SDS011;10281;54.406;18.556;2023-06-05T01:57:04;6.33;;;3.60;;
20245;SDS011;10281;54.406;18.556;2023-06-05T01:59:31;5.80;;;3.77;;
20245;SDS011;10281;54.406;18.556;2023-06-05T02:01:59;5.00;;;3.77;;
20245;SDS011;10281;54.406;18.556;2023-06-05T02:04:26;4.90;;;3.77;;
20245;SDS011;10281;54.406;18.556;2023-06-05T02:06:53;6.63;;;4.20;;
20245;SDS011;10281;54.406;18.556;2023-06-05T02:09:20;6.13;;;3.60;;
20245;SDS011;10281;54.406;18.556;2023-06-05T02:11:46;7.80;;;3.50;;
20245;SDS011;10281;54.406;18.556;2023-06-05T02:14:13;5.10;;;3.80;;
20245;SDS011;10281;54.406;18.556;2023-06-05T02:16:41;5.10;;;3.47;;
20245;SDS011;10281;54.406;18.556;2023-06-05T02:19:08;7.10;;;4.27;;
20245;SDS011;10281;54.406;18.556;2023-06-05T02:21:36;6.50;;;3.70;;
20245;SDS011;10281;54.406;18.556;2023-06-05T02:24:03;6.03;;;4.03;;
20245;SDS011;10281;54.406;18.556;2023-06-05T02:26:30;5.17;;;3.80;;
20245;SDS011;10281;54.406;18.556;2023-06-05T02:28:57;7.80;;;4.30;;
20245;SDS011;10281;54.406;18.556;2023-06-05T02:31:24;6.07;;;3.90;;
20245;SDS011;10281;54.406;18.556;2023-06-05T02:33:53;5.27;;;3.70;;
20245;SDS011;10281;54.406;18.556;2023-06-05T02:36:21;7.40;;;3.50;;
20245;SDS011;10281;54.406;18.556;2023-06-05T02:38:50;7.47;;;4.70;;
20245;SDS011;10281;54.406;18.556;2023-06-05T02:41:18;6.57;;;4.30;;
20245;SDS011;10281;54.406;18.556;2023-06-05T02:43:47;7.80;;;4.00;;
20245;SDS011;10281;54.406;18.556;2023-06-05T02:46:13;8.17;;;4.20;;
20245;SDS011;10281;54.406;18.556;2023-06-05T02:48:40;5.87;;;3.73;;
20245;SDS011;10281;54.406;18.556;2023-06-05T02:51:07;6.33;;;4.30;;
20245;SDS011;10281;54.406;18.556;2023-06-05T02:53:35;8.03;;;4.43;;
20245;SDS011;10281;54.406;18.556;2023-06-05T02:56:01;6.80;;;4.23;;
20245;SDS011;10281;54.406;18.556;2023-06-05T02:58:29;11.27;;;4.30;;
20245;SDS011;10281;54.406;18.556;2023-06-05T03:00:57;6.80;;;4.17;;
20245;SDS011;10281;54.406;18.556;2023-06-05T03:03:25;6.60;;;4.17;;
20245;SDS011;10281;54.406;18.556;2023-06-05T03:05:52;5.77;;;3.87;;
20245;SDS011;10281;54.406;18.556;2023-06-05T03:08:19;6.57;;;3.80;;
20245;SDS011;10281;54.406;18.556;2023-06-05T03:10:46;6.73;;;4.23;;
20245;SDS011;10281;54.406;18.556;2023-06-05T03:13:13;8.20;;;4.17;;
20245;SDS011;10281;54.406;18.556;2023-06-05T03:15:40;6.90;;;4.37;;
20245;SDS011;10281;54.406;18.556;2023-06-05T03:18:07;5.83;;;4.37;;
20245;SDS011;10281;54.406;18.556;2023-06-05T03:20:34;7.57;;;4.37;;
20245;SDS011;10281;54.406;18.556;2023-06-05T03:23:01;8.57;;;4.03;;
20245;SDS011;10281;54.406;18.556;2023-06-05T03:25:28;7.63;;;4.17;;
20245;SDS011;10281;54.406;18.556;2023-06-05T03:27:55;8.97;;;4.17;;
20245;SDS011;10281;54.406;18.556;2023-06-05T03:30:21;5.30;;;4.00;;
20245;SDS011;10281;54.406;18.556;2023-06-05T03:32:48;5.57;;;3.67;;
20245;SDS011;10281;54.406;18.556;2023-06-05T03:35:15;5.90;;;3.70;;
20245;SDS011;10281;54.406;18.556;2023-06-05T03:37:43;6.27;;;4.53;;
20245;SDS011;10281;54.406;18.556;2023-06-05T03:40:10;5.97;;;4.23;;
20245;SDS011;10281;54.406;18.556;2023-06-05T03:42:37;6.17;;;4.17;;
20245;SDS011;10281;54.406;18.556;2023-06-05T03:45:04;6.13;;;4.07;;
20245;SDS011;10281;54.406;18.556;2023-06-05T03:47:32;8.80;;;4.70;;
20245;SDS011;10281;54.406;18.556;2023-06-05T03:49:59;7.20;;;3.80;;
20245;SDS011;10281;54.406;18.556;2023-06-05T03:52:28;7.40;;;4.93;;
20245;SDS011;10281;54.406;18.556;2023-06-05T03:54:54;8.33;;;4.40;;
20245;SDS011;10281;54.406;18.556;2023-06-05T03:57:21;8.80;;;4.33;;
20245;SDS011;10281;54.406;18.556;2023-06-05T03:59:48;7.00;;;4.03;;
20245;SDS011;10281;54.406;18.556;2023-06-05T04:02:14;7.77;;;4.10;;
20245;SDS011;10281;54.406;18.556;2023-06-05T04:04:41;7.13;;;4.47;;
20245;SDS011;10281;54.406;18.556;2023-06-05T04:07:08;6.60;;;4.10;;
20245;SDS011;10281;54.406;18.556;2023-06-05T04:09:34;7.27;;;3.80;;
20245;SDS011;10281;54.406;18.556;2023-06-05T04:12:01;10.93;;;4.83;;
20245;SDS011;10281;54.406;18.556;2023-06-05T04:14:28;5.90;;;3.80;;
20245;SDS011;10281;54.406;18.556;2023-06-05T04:16:55;6.80;;;3.87;;
20245;SDS011;10281;54.406;18.556;2023-06-05T04:19:22;6.17;;;4.13;;
20245;SDS011;10281;54.406;18.556;2023-06-05T04:21:48;5.10;;;4.07;;
20245;SDS011;10281;54.406;18.556;2023-06-05T04:24:16;6.67;;;4.33;;
20245;SDS011;10281;54.406;18.556;2023-06-05T04:26:43;9.40;;;4.17;;
20245;SDS011;10281;54.406;18.556;2023-06-05T04:29:10;6.67;;;3.83;;
20245;SDS011;10281;54.406;18.556;2023-06-05T04:31:41;7.70;;;4.23;;
20245;SDS011;10281;54.406;18.556;2023-06-05T04:34:09;9.97;;;4.37;;
20245;SDS011;10281;54.406;18.556;2023-06-05T04:36:36;7.10;;;4.37;;
20245;SDS011;10281;54.406;18.556;2023-06-05T04:39:03;7.43;;;4.00;;
20245;SDS011;10281;54.406;18.556;2023-06-05T04:41:32;5.73;;;3.83;;
20245;SDS011;10281;54.406;18.556;2023-06-05T04:44:01;6.83;;;3.57;;
20245;SDS011;10281;54.406;18.556;2023-06-05T04:46:28;5.10;;;3.60;;
20245;SDS011;10281;54.406;18.556;2023-06-05T04:48:55;7.80;;;3.77;;
20245;SDS011;10281;54.406;18.556;2023-06-05T04:51:23;6.13;;;4.00;;
20245;SDS011;10281;54.406;18.556;2023-06-05T04:53:50;7.40;;;3.17;;
20245;SDS011;10281;54.406;18.556;2023-06-05T04:56:18;6.53;;;4.17;;
20245;SDS011;10281;54.406;18.556;2023-06-05T04:58:47;9.57;;;3.60;;
20245;SDS011;10281;54.406;18.556;2023-06-05T05:01:16;6.50;;;3.20;;
20245;SDS011;10281;54.406;18.556;2023-06-05T05:03:42;6.40;;;3.70;;
20245;SDS011;10281;54.406;18.556;2023-06-05T05:06:10;5.43;;;3.23;;
20245;SDS011;10281;54.406;18.556;2023-06-05T05:08:36;6.67;;;3.40;;
20245;SDS011;10281;54.406;18.556;2023-06-05T05:11:03;6.10;;;3.30;;
20245;SDS011;10281;54.406;18.556;2023-06-05T05:13:30;5.27;;;3.37;;
20245;SDS011;10281;54.406;18.556;2023-06-05T05:15:57;5.87;;;3.30;;
20245;SDS011;10281;54.406;18.556;2023-06-05T05:18:23;7.70;;;3.53;;
20245;SDS011;10281;54.406;18.556;2023-06-05T05:20:50;6.40;;;3.50;;
20245;SDS011;10281;54.406;18.556;2023-06-05T05:23:19;6.37;;;3.90;;
20245;SDS011;10281;54.406;18.556;2023-06-05T05:25:46;6.50;;;3.50;;
20245;SDS011;10281;54.406;18.556;2023-06-05T05:28:13;6.93;;;3.50;;
20245;SDS011;10281;54.406;18.556;2023-06-05T05:30:40;7.90;;;3.30;;
20245;SDS011;10281;54.406;18.556;2023-06-05T05:33:07;6.83;;;3.43;;
20245;SDS011;10281;54.406;18.556;2023-06-05T05:35:33;6.60;;;3.23;;
20245;SDS011;10281;54.406;18.556;2023-06-05T05:38:00;6.07;;;3.90;;
20245;SDS011;10281;54.406;18.556;2023-06-05T05:40:26;7.23;;;3.33;;
20245;SDS011;10281;54.406;18.556;2023-06-05T05:42:53;5.53;;;2.60;;
20245;SDS011;10281;54.406;18.556;2023-06-05T05:45:20;5.03;;;2.90;;
20245;SDS011;10281;54.406;18.556;2023-06-05T05:47:46;5.77;;;2.60;;
20245;SDS011;10281;54.406;18.556;2023-06-05T05:50:13;3.50;;;2.47;;
20245;SDS011;10281;54.406;18.556;2023-06-05T05:52:39;3.70;;;2.20;;
20245;SDS011;10281;54.406;18.556;2023-06-05T05:55:08;5.70;;;2.57;;
20245;SDS011;10281;54.406;18.556;2023-06-05T05:57:35;4.53;;;2.60;;
20245;SDS011;10281;54.406;18.556;2023-06-05T06:00:02;3.30;;;2.07;;
20245;SDS011;10281;54.406;18.556;2023-06-05T06:02:34;5.77;;;2.70;;
20245;SDS011;10281;54.406;18.556;2023-06-05T06:05:01;3.60;;;2.20;;
20245;SDS011;10281;54.406;18.556;2023-06-05T06:07:28;6.63;;;2.43;;
20245;SDS011;10281;54.406;18.556;2023-06-05T06:09:56;4.90;;;2.03;;
20245;SDS011;10281;54.406;18.556;2023-06-05T06:12:22;5.40;;;3.20;;
20245;SDS011;10281;54.406;18.556;2023-06-05T06:14:49;2.70;;;2.13;;
20245;SDS011;10281;54.406;18.556;2023-06-05T06:17:16;3.60;;;2.30;;
20245;SDS011;10281;54.406;18.556;2023-06-05T06:19:44;4.17;;;1.80;;
20245;SDS011;10281;54.406;18.556;2023-06-05T06:22:13;3.77;;;2.00;;
20245;SDS011;10281;54.406;18.556;2023-06-05T06:24:41;4.63;;;1.83;;
20245;SDS011;10281;54.406;18.556;2023-06-05T06:27:08;5.50;;;2.03;;
20245;SDS011;10281;54.406;18.556;2023-06-05T06:29:37;2.57;;;1.90;;
20245;SDS011;10281;54.406;18.556;2023-06-05T06:32:06;5.73;;;2.37;;
20245;SDS011;10281;54.406;18.556;2023-06-05T06:34:33;4.43;;;2.10;;
20245;SDS011;10281;54.406;18.556;2023-06-05T06:37:00;3.03;;;1.90;;
20245;SDS011;10281;54.406;18.556;2023-06-05T06:39:27;2.17;;;1.97;;
20245;SDS011;10281;54.406;18.556;2023-06-05T06:41:54;2.60;;;1.90;;
20245;SDS011;10281;54.406;18.556;2023-06-05T06:44:23;2.20;;;1.80;;
20245;SDS011;10281;54.406;18.556;2023-06-05T06:46:49;3.20;;;1.90;;
20245;SDS011;10281;54.406;18.556;2023-06-05T06:49:16;4.00;;;2.33;;
20245;SDS011;10281;54.406;18.556;2023-06-05T06:51:42;6.40;;;2.97;;
20245;SDS011;10281;54.406;18.556;2023-06-05T06:54:09;4.40;;;2.57;;
20245;SDS011;10281;54.406;18.556;2023-06-05T06:56:36;5.27;;;2.57;;
20245;SDS011;10281;54.406;18.556;2023-06-05T06:59:10;4.20;;;2.60;;
20245;SDS011;10281;54.406;18.556;2023-06-05T07:01:43;5.03;;;2.57;;
20245;SDS011;10281;54.406;18.556;2023-06-05T07:04:12;5.07;;;2.80;;
20245;SDS011;10281;54.406;18.556;2023-06-05T07:06:41;5.87;;;3.10;;
20245;SDS011;10281;54.406;18.556;2023-06-05T07:09:10;4.67;;;2.80;;
20245;SDS011;10281;54.406;18.556;2023-06-05T07:11:36;4.83;;;2.50;;
20245;SDS011;10281;54.406;18.556;2023-06-05T07:14:03;7.33;;;3.40;;
20245;SDS011;10281;54.406;18.556;2023-06-05T07:16:31;9.13;;;2.70;;
20245;SDS011;10281;54.406;18.556;2023-06-05T07:18:57;4.37;;;2.40;;
20245;SDS011;10281;54.406;18.556;2023-06-05T07:21:24;7.00;;;2.77;;
20245;SDS011;10281;54.406;18.556;2023-06-05T07:23:52;5.73;;;2.50;;
20245;SDS011;10281;54.406;18.556;2023-06-05T07:26:19;8.87;;;2.83;;
20245;SDS011;10281;54.406;18.556;2023-06-05T07:28:47;4.97;;;2.90;;
20245;SDS011;10281;54.406;18.556;2023-06-05T07:31:15;5.40;;;2.63;;
20245;SDS011;10281;54.406;18.556;2023-06-05T07:33:43;4.80;;;2.70;;
20245;SDS011;10281;54.406;18.556;2023-06-05T07:36:10;5.57;;;2.87;;
20245;SDS011;10281;54.406;18.556;2023-06-05T07:38:37;7.70;;;2.57;;
20245;SDS011;10281;54.406;18.556;2023-06-05T07:41:05;5.30;;;2.60;;
20245;SDS011;10281;54.406;18.556;2023-06-05T07:43:32;5.23;;;2.50;;
20245;SDS011;10281;54.406;18.556;2023-06-05T07:45:58;4.97;;;2.40;;
20245;SDS011;10281;54.406;18.556;2023-06-05T07:48:25;6.07;;;2.43;;
20245;SDS011;10281;54.406;18.556;2023-06-05T07:50:52;4.67;;;2.23;;
20245;SDS011;10281;54.406;18.556;2023-06-05T07:53:18;5.57;;;1.90;;
20245;SDS011;10281;54.406;18.556;2023-06-05T07:55:47;3.77;;;2.30;;
20245;SDS011;10281;54.406;18.556;2023-06-05T07:58:14;5.37;;;2.10;;
20245;SDS011;10281;54.406;18.556;2023-06-05T08:00:41;7.47;;;1.90;;
20245;SDS011;10281;54.406;18.556;2023-06-05T08:03:09;2.97;;;2.17;;
20245;SDS011;10281;54.406;18.556;2023-06-05T08:05:35;1.80;;;1.50;;
20245;SDS011;10281;54.406;18.556;2023-06-05T08:08:02;3.20;;;1.80;;
20245;SDS011;10281;54.406;18.556;2023-06-05T08:10:29;5.23;;;1.70;;
20245;SDS011;10281;54.406;18.556;2023-06-05T08:12:55;3.17;;;1.40;;
20245;SDS011;10281;54.406;18.556;2023-06-05T08:15:22;3.40;;;1.53;;
20245;SDS011;10281;54.406;18.556;2023-06-05T08:17:49;3.10;;;1.70;;
20245;SDS011;10281;54.406;18.556;2023-06-05T08:20:15;4.27;;;1.80;;
20245;SDS011;10281;54.406;18.556;2023-06-05T08:22:42;3.10;;;1.40;;
20245;SDS011;10281;54.406;18.556;2023-06-05T08:25:08;4.30;;;1.67;;
20245;SDS011;10281;54.406;18.556;2023-06-05T08:27:35;3.87;;;1.40;;
20245;SDS011;10281;54.406;18.556;2023-06-05T08:30:02;4.07;;;1.43;;
20245;SDS011;10281;54.406;18.556;2023-06-05T08:32:29;3.87;;;1.57;;
20245;SDS011;10281;54.406;18.556;2023-06-05T08:34:55;1.63;;;1.20;;
20245;SDS011;10281;54.406;18.556;2023-06-05T08:37:22;1.93;;;1.53;;
20245;SDS011;10281;54.406;18.556;2023-06-05T08:39:49;2.77;;;1.33;;
20245;SDS011;10281;54.406;18.556;2023-06-05T08:42:16;4.50;;;1.60;;
20245;SDS011;10281;54.406;18.556;2023-06-05T08:44:45;4.57;;;1.47;;
20245;SDS011;10281;54.406;18.556;2023-06-05T08:47:14;1.87;;;1.30;;
20245;SDS011;10281;54.406;18.556;2023-06-05T08:49:41;1.73;;;1.10;;
20245;SDS011;10281;54.406;18.556;2023-06-05T08:52:08;2.43;;;1.10;;
20245;SDS011;10281;54.406;18.556;2023-06-05T08:54:37;4.33;;;1.40;;
20245;SDS011;10281;54.406;18.556;2023-06-05T08:57:07;2.90;;;1.30;;
20245;SDS011;10281;54.406;18.556;2023-06-05T08:59:34;2.10;;;1.00;;
20245;SDS011;10281;54.406;18.556;2023-06-05T09:02:02;1.67;;;1.27;;
20245;SDS011;10281;54.406;18.556;2023-06-05T09:04:28;1.33;;;1.00;;
20245;SDS011;10281;54.406;18.556;2023-06-05T09:06:56;3.67;;;1.30;;
20245;SDS011;10281;54.406;18.556;2023-06-05T09:09:24;1.20;;;1.00;;
20245;SDS011;10281;54.406;18.556;2023-06-05T09:14:31;3.70;;;2.37;;
20245;SDS011;10281;54.406;18.556;2023-06-05T09:16:59;3.40;;;1.20;;
20245;SDS011;10281;54.406;18.556;2023-06-05T09:22:02;1.87;;;1.20;;
20245;SDS011;10281;54.406;18.556;2023-06-05T09:24:28;3.33;;;1.00;;
20245;SDS011;10281;54.406;18.556;2023-06-05T09:26:58;2.30;;;1.20;;
20245;SDS011;10281;54.406;18.556;2023-06-05T09:29:35;2.47;;;1.30;;
20245;SDS011;10281;54.406;18.556;2023-06-05T09:32:04;2.50;;;1.13;;
20245;SDS011;10281;54.406;18.556;2023-06-05T09:34:34;2.07;;;1.30;;
20245;SDS011;10281;54.406;18.556;2023-06-05T09:37:02;2.67;;;1.20;;
20245;SDS011;10281;54.406;18.556;2023-06-05T09:39:32;3.27;;;1.20;;
20245;SDS011;10281;54.406;18.556;2023-06-05T09:42:01;1.27;;;1.10;;
20245;SDS011;10281;54.406;18.556;2023-06-05T09:44:28;1.83;;;1.20;;
20245;SDS011;10281;54.406;18.556;2023-06-05T09:46:58;1.30;;;1.20;;
20245;SDS011;10281;54.406;18.556;2023-06-05T09:49:29;3.07;;;1.20;;
20245;SDS011;10281;54.406;18.556;2023-06-05T09:54:32;1.83;;;1.23;;
20245;SDS011;10281;54.406;18.556;2023-06-05T09:57:04;2.17;;;1.20;;
20245;SDS011;10281;54.406;18.556;2023-06-05T09:59:32;2.07;;;1.40;;
20245;SDS011;10281;54.406;18.556;2023-06-05T10:02:02;2.50;;;1.47;;
20245;SDS011;10281;54.406;18.556;2023-06-05T10:05:04;3.87;;;1.70;;
20245;SDS011;10281;54.406;18.556;2023-06-05T10:07:17;1.87;;;1.20;;
20245;SDS011;10281;54.406;18.556;2023-06-05T10:09:48;2.00;;;1.30;;
20245;SDS011;10281;54.406;18.556;2023-06-05T10:12:16;2.47;;;1.20;;
20245;SDS011;10281;54.406;18.556;2023-06-05T10:14:43;1.97;;;1.33;;
20245;SDS011;10281;54.406;18.556;2023-06-05T10:17:11;2.77;;;1.20;;
20245;SDS011;10281;54.406;18.556;2023-06-05T10:19:41;3.70;;;1.33;;
20245;SDS011;10281;54.406;18.556;2023-06-05T10:22:10;3.23;;;1.30;;
20245;SDS011;10281;54.406;18.556;2023-06-05T10:24:42;1.97;;;1.20;;
20245;SDS011;10281;54.406;18.556;2023-06-05T10:27:19;1.83;;;1.47;;
20245;SDS011;10281;54.406;18.556;2023-06-05T10:30:03;2.83;;;1.30;;
20245;SDS011;10281;54.406;18.556;2023-06-05T10:35:23;1.67;;;1.27;;
20245;SDS011;10281;54.406;18.556;2023-06-05T10:38:15;2.67;;;1.60;;
20245;SDS011;10281;54.406;18.556;2023-06-05T10:40:48;3.80;;;1.30;;
20245;SDS011;10281;54.406;18.556;2023-06-05T10:43:28;1.20;;;1.10;;
20245;SDS011;10281;54.406;18.556;2023-06-05T10:46:00;1.30;;;1.20;;
20245;SDS011;10281;54.406;18.556;2023-06-05T10:53:46;1.33;;;1.23;;
20245;SDS011;10281;54.406;18.556;2023-06-05T11:01:40;1.50;;;1.30;;
20245;SDS011;10281;54.406;18.556;2023-06-05T11:04:06;1.77;;;1.17;;
20245;SDS011;10281;54.406;18.556;2023-06-05T11:06:33;3.23;;;1.30;;
20245;SDS011;10281;54.406;18.556;2023-06-05T11:09:06;3.33;;;1.73;;
20245;SDS011;10281;54.406;18.556;2023-06-05T11:14:18;2.27;;;1.50;;
20245;SDS011;10281;54.406;18.556;2023-06-05T11:16:45;2.17;;;1.20;;
20245;SDS011;10281;54.406;18.556;2023-06-05T11:22:01;1.30;;;1.10;;
20245;SDS011;10281;54.406;18.556;2023-06-05T11:24:34;2.10;;;1.40;;
20245;SDS011;10281;54.406;18.556;2023-06-05T11:27:02;1.57;;;1.30;;
20245;SDS011;10281;54.406;18.556;2023-06-05T11:29:31;1.23;;;1.13;;
20245;SDS011;10281;54.406;18.556;2023-06-05T11:31:58;1.20;;;1.10;;
20245;SDS011;10281;54.406;18.556;2023-06-05T11:34:26;2.43;;;1.00;;
20245;SDS011;10281;54.406;18.556;2023-06-05T11:36:55;2.73;;;1.40;;
20245;SDS011;10281;54.406;18.556;2023-06-05T11:39:23;3.10;;;1.27;;
20245;SDS011;10281;54.406;18.556;2023-06-05T11:41:52;2.13;;;1.10;;
20245;SDS011;10281;54.406;18.556;2023-06-05T11:46:57;1.17;;;0.90;;
20245;SDS011;10281;54.406;18.556;2023-06-05T11:49:25;1.10;;;1.00;;
20245;SDS011;10281;54.406;18.556;2023-06-05T11:51:53;2.10;;;1.13;;
20245;SDS011;10281;54.406;18.556;2023-06-05T11:54:24;1.40;;;1.00;;
20245;SDS011;10281;54.406;18.556;2023-06-05T11:56:57;4.70;;;1.30;;
20245;SDS011;10281;54.406;18.556;2023-06-05T11:59:24;2.30;;;1.10;;
20245;SDS011;10281;54.406;18.556;2023-06-05T12:01:51;1.30;;;1.20;;
20245;SDS011;10281;54.406;18.556;2023-06-05T12:04:19;1.97;;;1.27;;
20245;SDS011;10281;54.406;18.556;2023-06-05T12:06:47;3.03;;;1.30;;
20245;SDS011;10281;54.406;18.556;2023-06-05T12:09:14;1.20;;;1.07;;
20245;SDS011;10281;54.406;18.556;2023-06-05T12:11:42;2.07;;;1.10;;
20245;SDS011;10281;54.406;18.556;2023-06-05T12:14:10;2.83;;;1.30;;
20245;SDS011;10281;54.406;18.556;2023-06-05T12:16:38;2.87;;;1.40;;
20245;SDS011;10281;54.406;18.556;2023-06-05T12:19:12;2.80;;;1.30;;
20245;SDS011;10281;54.406;18.556;2023-06-05T12:21:40;1.33;;;0.97;;
20245;SDS011;10281;54.406;18.556;2023-06-05T12:24:08;1.83;;;1.00;;
20245;SDS011;10281;54.406;18.556;2023-06-05T12:29:15;2.40;;;1.03;;
20245;SDS011;10281;54.406;18.556;2023-06-05T12:31:42;2.87;;;1.27;;
20245;SDS011;10281;54.406;18.556;2023-06-05T12:34:09;1.60;;;0.93;;
20245;SDS011;10281;54.406;18.556;2023-06-05T12:36:38;2.50;;;1.33;;
20245;SDS011;10281;54.406;18.556;2023-06-05T12:39:06;2.23;;;1.10;;
20245;SDS011;10281;54.406;18.556;2023-06-05T12:41:36;4.20;;;1.17;;
20245;SDS011;10281;54.406;18.556;2023-06-05T12:44:03;1.77;;;1.00;;
20245;SDS011;10281;54.406;18.556;2023-06-05T12:46:31;3.10;;;1.33;;
20245;SDS011;10281;54.406;18.556;2023-06-05T12:48:59;1.23;;;1.07;;
20245;SDS011;10281;54.406;18.556;2023-06-05T12:51:26;1.30;;;1.10;;
20245;SDS011;10281;54.406;18.556;2023-06-05T12:53:54;1.43;;;1.10;;
20245;SDS011;10281;54.406;18.556;2023-06-05T12:56:22;1.40;;;1.10;;
20245;SDS011;10281;54.406;18.556;2023-06-05T12:58:54;2.07;;;1.03;;
20245;SDS011;10281;54.406;18.556;2023-06-05T13:01:23;1.83;;;1.30;;
20245;SDS011;10281;54.406;18.556;2023-06-05T13:03:51;2.67;;;1.20;;
20245;SDS011;10281;54.406;18.556;2023-06-05T13:06:18;1.40;;;1.03;;
20245;SDS011;10281;54.406;18.556;2023-06-05T13:08:45;1.20;;;1.10;;
20245;SDS011;10281;54.406;18.556;2023-06-05T13:11:12;1.83;;;0.93;;
20245;SDS011;10281;54.406;18.556;2023-06-05T13:13:39;1.40;;;1.10;;
20245;SDS011;10281;54.406;18.556;2023-06-05T13:16:06;1.67;;;0.80;;
20245;SDS011;10281;54.406;18.556;2023-06-05T13:18:34;1.97;;;1.00;;
20245;SDS011;10281;54.406;18.556;2023-06-05T13:21:04;1.30;;;1.10;;
20245;SDS011;10281;54.406;18.556;2023-06-05T13:23:31;6.20;;;1.30;;
20245;SDS011;10281;54.406;18.556;2023-06-05T13:25:59;4.17;;;3.00;;
20245;SDS011;10281;54.406;18.556;2023-06-05T13:28:26;1.57;;;1.10;;
20245;SDS011;10281;54.406;18.556;2023-06-05T13:30:53;1.00;;;0.83;;
20245;SDS011;10281;54.406;18.556;2023-06-05T13:33:22;3.20;;;1.00;;
20245;SDS011;10281;54.406;18.556;2023-06-05T13:35:50;2.63;;;1.10;;
20245;SDS011;10281;54.406;18.556;2023-06-05T13:38:19;2.90;;;1.07;;
20245;SDS011;10281;54.406;18.556;2023-06-05T13:40:48;1.40;;;1.13;;
20245;SDS011;10281;54.406;18.556;2023-06-05T13:43:17;2.47;;;1.10;;
20245;SDS011;10281;54.406;18.556;2023-06-05T13:45:44;1.67;;;1.40;;
20245;SDS011;10281;54.406;18.556;2023-06-05T13:48:11;2.40;;;1.20;;
20245;SDS011;10281;54.406;18.556;2023-06-05T13:50:38;3.20;;;1.20;;
20245;SDS011;10281;54.406;18.556;2023-06-05T13:53:04;3.03;;;1.40;;
20245;SDS011;10281;54.406;18.556;2023-06-05T13:55:31;3.77;;;1.40;;
20245;SDS011;10281;54.406;18.556;2023-06-05T13:57:57;2.50;;;1.40;;
20245;SDS011;10281;54.406;18.556;2023-06-05T14:00:27;5.70;;;1.50;;
20245;SDS011;10281;54.406;18.556;2023-06-05T14:02:55;5.17;;;1.67;;
20245;SDS011;10281;54.406;18.556;2023-06-05T14:05:22;2.53;;;1.33;;
20245;SDS011;10281;54.406;18.556;2023-06-05T14:07:49;1.10;;;1.00;;
20245;SDS011;10281;54.406;18.556;2023-06-05T14:10:19;1.73;;;1.30;;
20245;SDS011;10281;54.406;18.556;2023-06-05T14:12:47;1.90;;;1.10;;
20245;SDS011;10281;54.406;18.556;2023-06-05T14:15:14;5.03;;;1.30;;
20245;SDS011;10281;54.406;18.556;2023-06-05T14:17:45;1.73;;;1.20;;
20245;SDS011;10281;54.406;18.556;2023-06-05T14:20:12;4.50;;;1.53;;
20245;SDS011;10281;54.406;18.556;2023-06-05T14:22:39;4.20;;;1.37;;
20245;SDS011;10281;54.406;18.556;2023-06-05T14:25:07;4.10;;;1.20;;
20245;SDS011;10281;54.406;18.556;2023-06-05T14:27:36;1.83;;;1.40;;
20245;SDS011;10281;54.406;18.556;2023-06-05T14:30:03;3.90;;;1.20;;
20245;SDS011;10281;54.406;18.556;2023-06-05T14:32:30;3.20;;;1.60;;
20245;SDS011;10281;54.406;18.556;2023-06-05T14:34:56;1.20;;;1.10;;
20245;SDS011;10281;54.406;18.556;2023-06-05T14:37:23;1.73;;;1.27;;
20245;SDS011;10281;54.406;18.556;2023-06-05T14:39:50;4.07;;;1.20;;
20245;SDS011;10281;54.406;18.556;2023-06-05T14:42:16;2.63;;;1.50;;
20245;SDS011;10281;54.406;18.556;2023-06-05T14:44:43;4.23;;;1.20;;
20245;SDS011;10281;54.406;18.556;2023-06-05T14:47:10;2.00;;;1.30;;
20245;SDS011;10281;54.406;18.556;2023-06-05T14:49:37;3.37;;;1.80;;
20245;SDS011;10281;54.406;18.556;2023-06-05T14:52:04;3.77;;;1.60;;
20245;SDS011;10281;54.406;18.556;2023-06-05T14:54:31;1.90;;;1.43;;
20245;SDS011;10281;54.406;18.556;2023-06-05T14:56:57;3.17;;;1.60;;
20245;SDS011;10281;54.406;18.556;2023-06-05T14:59:24;2.20;;;1.30;;
20245;SDS011;10281;54.406;18.556;2023-06-05T15:01:51;2.40;;;1.20;;
20245;SDS011;10281;54.406;18.556;2023-06-05T15:04:17;2.27;;;1.50;;
20245;SDS011;10281;54.406;18.556;2023-06-05T15:06:44;1.83;;;1.20;;
20245;SDS011;10281;54.406;18.556;2023-06-05T15:09:10;5.27;;;1.40;;